Time;durP1;ratioP1;P1;durP2;ratioP2;P2;SDS_P1;SDS_P2;PMS_P1;PMS_P2;Temp;Humidity;BMP_temperature;BMP_pressure;BME280_temperature;BME280_humidity;BME280_pressure;Samples;Min_cycle;Max_cycle;Signal;HPM_P1;HPM_P2
2023/12/28 00:01:26;;;;;;;5.33;2.50;;;;;;;11.00;52.73;100144.19;5030529;28;20171;-84
2023/12/28 00:03:52;;;;;;;7.90;2.80;;;;;;;10.84;53.09;100148.31;5030546;28;20686;-84
2023/12/28 00:06:17;;;;;;;8.60;2.87;;;;;;;10.82;53.08;100144.91;5015242;28;20229;-83
2023/12/28 00:08:43;;;;;;;4.97;2.30;;;;;;;10.80;53.25;100146.69;5027558;28;20689;-83
2023/12/28 00:11:08;;;;;;;9.50;2.67;;;;;;;10.54;53.97;100139.81;5029303;28;20214;-83
2023/12/28 00:13:34;;;;;;;4.77;2.20;;;;;;;10.55;54.05;100145.91;5028833;28;20235;-83
2023/12/28 00:15:59;;;;;;;6.40;2.67;;;;;;;10.35;54.53;100144.84;5028989;28;20175;-83
2023/12/28 00:18:25;;;;;;;6.47;2.47;;;;;;;10.40;54.75;100142.91;5032264;28;20692;-84
2023/12/28 00:20:51;;;;;;;5.87;2.13;;;;;;;10.46;54.36;100152.31;5030940;28;21200;-84
2023/12/28 00:23:16;;;;;;;8.77;3.00;;;;;;;10.59;53.73;100152.72;5014630;28;20182;-84
2023/12/28 00:25:42;;;;;;;6.93;2.97;;;;;;;10.59;53.79;100152.72;5041691;28;20247;-84
2023/12/28 00:28:07;;;;;;;8.07;2.47;;;;;;;10.41;53.55;100162.13;5030315;28;20186;-84
2023/12/28 00:30:32;;;;;;;8.40;3.30;;;;;;;9.69;55.50;100157.63;5030437;28;20240;-84
2023/12/28 00:32:58;;;;;;;6.93;3.80;;;;;;;9.57;55.84;100168.47;5025824;28;20541;-83
2023/12/28 00:35:26;;;;;;;11.53;4.30;;;;;;;9.51;55.99;100173.91;5027523;28;20244;-83
2023/12/28 00:37:51;;;;;;;9.87;4.37;;;;;;;9.49;55.90;100175.69;5032860;28;20178;-84
2023/12/28 00:40:18;;;;;;;8.37;4.23;;;;;;;9.49;55.77;100175.69;5015290;28;20189;-84
2023/12/28 00:42:48;;;;;;;5.67;3.00;;;;;;;9.43;55.90;100183.75;5030451;28;20186;-84
2023/12/28 00:45:13;;;;;;;8.30;3.77;;;;;;;9.46;55.71;100188.91;5033296;28;20212;-84
2023/12/28 00:47:42;;;;;;;11.03;2.80;;;;;;;9.43;55.49;100186.38;5029335;28;20602;-84
2023/12/28 00:50:14;;;;;;;7.07;3.07;;;;;;;9.45;56.03;100181.94;5032880;28;20186;-84
2023/12/28 00:52:40;;;;;;;4.27;2.23;;;;;;;9.49;55.69;100181.78;5015929;28;20166;-84
2023/12/28 00:55:07;;;;;;;6.47;2.47;;;;;;;9.28;56.61;100185.94;5037229;28;20257;-83
2023/12/28 00:57:34;;;;;;;1.97;1.20;;;;;;;9.43;56.33;100186.38;5026466;28;20262;-84
2023/12/28 01:00:00;;;;;;;5.70;1.83;;;;;;;9.59;55.63;100185.00;5017611;28;20175;-84
2023/12/28 01:02:25;;;;;;;7.33;2.23;;;;;;;9.73;55.07;100190.63;5017098;28;20244;-84
2023/12/28 01:04:50;;;;;;;5.27;1.73;;;;;;;9.65;55.09;100182.16;5016856;28;20193;-83
2023/12/28 01:07:19;;;;;;;4.10;1.53;;;;;;;9.52;55.94;100178.22;5034503;28;20181;-84
2023/12/28 01:09:44;;;;;;;7.10;1.77;;;;;;;9.42;56.06;100185.50;5036461;28;20185;-83
2023/12/28 01:12:11;;;;;;;4.77;1.50;;;;;;;9.45;55.96;100189.78;5036104;28;20186;-84
2023/12/28 01:14:38;;;;;;;5.97;1.77;;;;;;;9.57;55.54;100194.63;5036910;28;20637;-84
2023/12/28 01:17:04;;;;;;;6.37;1.80;;;;;;;9.57;55.67;100184.16;5018909;28;20174;-84
2023/12/28 01:19:31;;;;;;;3.30;1.33;;;;;;;9.57;55.55;100189.41;5018992;28;20182;-84
2023/12/28 01:21:57;;;;;;;5.90;1.97;;;;;;;9.53;55.67;100182.56;5034357;28;20204;-84
2023/12/28 01:24:25;;;;;;;2.63;1.03;;;;;;;9.35;56.07;100185.75;5035563;28;20189;-84
2023/12/28 01:26:52;;;;;;;2.97;1.33;;;;;;;9.21;56.93;100189.66;5025584;28;20294;-84
2023/12/28 01:29:18;;;;;;;3.70;1.40;;;;;;;9.33;57.14;100191.03;5014514;28;20536;-83
2023/12/28 01:31:45;;;;;;;5.77;1.83;;;;;;;9.55;56.64;100183.38;5035923;28;20206;-83
2023/12/28 01:34:12;;;;;;;7.27;1.80;;;;;;;9.63;56.21;100184.84;5036254;28;20209;-83
2023/12/28 01:36:41;;;;;;;4.83;1.33;;;;;;;9.57;56.29;100184.16;5035943;28;20178;-83
2023/12/28 01:39:10;;;;;;;5.43;1.63;;;;;;;9.61;56.04;100177.94;5036453;28;20170;-84
2023/12/28 01:41:36;;;;;;;4.50;1.37;;;;;;;9.54;56.13;100179.06;5026494;28;20187;-84
2023/12/28 01:44:03;;;;;;;3.70;1.30;;;;;;;9.45;56.63;100181.94;4998187;28;20175;-83
2023/12/28 01:46:28;;;;;;;3.13;1.30;;;;;;;9.64;55.92;100176.06;5029489;28;20259;-84
2023/12/28 01:48:56;;;;;;;4.20;1.10;;;;;;;9.65;55.68;100182.16;5018353;28;20265;-83
2023/12/28 01:51:23;;;;;;;3.80;1.20;;;;;;;9.62;56.02;100184.88;5035460;28;20733;-83
2023/12/28 01:53:51;;;;;;;2.80;1.00;;;;;;;9.60;55.68;100184.06;5035912;28;20215;-83
2023/12/28 01:56:18;;;;;;;3.30;1.47;;;;;;;9.49;56.25;100187.03;5008942;28;20266;-83
2023/12/28 01:58:48;;;;;;;4.37;1.50;;;;;;;9.48;56.08;100189.72;5016309;28;20181;-83
2023/12/28 02:01:15;;;;;;;7.40;1.97;;;;;;;9.49;56.14;100186.16;5031896;28;20192;-83
2023/12/28 02:03:41;;;;;;;6.90;2.43;;;;;;;9.38;55.92;100190.91;5034838;28;20184;-83
2023/12/28 02:06:08;;;;;;;10.77;2.70;;;;;;;9.33;55.67;100185.78;5033036;28;20315;-83
2023/12/28 02:08:35;;;;;;;6.33;2.57;;;;;;;9.24;55.64;100186.94;5033551;28;20178;-83
2023/12/28 02:11:01;;;;;;;5.93;2.93;;;;;;;9.21;55.76;100187.03;5035632;28;20661;-83
2023/12/28 02:13:28;;;;;;;3.53;1.47;;;;;;;9.06;56.38;100186.63;5035532;28;20195;-83
2023/12/28 02:16:13;;;;;;;3.80;1.20;;;;;;;8.97;57.45;100185.16;5035397;28;20236;-83
2023/12/28 02:18:43;;;;;;;2.40;1.20;;;;;;;9.02;57.33;100191.09;5035670;28;20266;-83
2023/12/28 02:21:09;;;;;;;4.67;1.23;;;;;;;9.07;57.12;100189.19;5017853;28;20193;-83
2023/12/28 02:23:35;;;;;;;6.03;1.63;;;;;;;9.10;57.37;100191.72;5034707;28;20706;-83
2023/12/28 02:26:01;;;;;;;5.00;2.33;;;;;;;9.14;56.77;100189.88;5034707;28;20233;-83
2023/12/28 02:28:28;;;;;;;4.83;1.27;;;;;;;9.13;56.71;100196.00;5033663;28;20267;-83
2023/12/28 02:30:53;;;;;;;3.40;1.47;;;;;;;9.09;56.49;100195.22;5017387;28;20190;-83
2023/12/28 02:33:29;;;;;;;3.27;1.40;;;;;;;9.12;56.01;100191.66;5017768;28;20191;-83
2023/12/28 02:36:13;;;;;;;9.93;2.80;;;;;;;9.15;55.57;100200.28;5033559;28;20169;-83
2023/12/28 02:38:41;;;;;;;9.60;1.70;;;;;;;9.15;55.57;100197.66;5034733;28;20189;-83
2023/12/28 02:41:08;;;;;;;5.57;2.43;;;;;;;9.17;55.71;100197.66;5034613;28;20177;-83
2023/12/28 02:43:34;;;;;;;7.67;2.60;;;;;;;9.20;55.45;100208.00;5034702;28;20177;-84
2023/12/28 02:46:00;;;;;;;3.80;2.20;;;;;;;8.88;56.38;100203.72;5026842;28;20194;-83
2023/12/28 02:48:27;;;;;;;8.43;2.90;;;;;;;8.58;57.85;100201.97;5023863;28;20200;-84
2023/12/28 02:50:54;;;;;;;4.33;2.03;;;;;;;8.40;59.05;100212.91;5035359;28;20187;-83
2023/12/28 02:53:20;;;;;;;6.03;1.63;;;;;;;8.36;59.79;100208.69;5034584;28;20170;-83
2023/12/28 02:55:46;;;;;;;4.17;1.67;;;;;;;8.44;59.88;100206.69;5029035;28;20196;-83
2023/12/28 02:58:13;;;;;;;4.13;1.83;;;;;;;8.37;59.94;100215.59;5020108;28;20183;-83
2023/12/28 03:00:39;;;;;;;7.80;1.83;;;;;;;8.44;60.04;100212.78;5015401;28;20171;-83
2023/12/28 03:03:04;;;;;;;4.73;2.47;;;;;;;8.49;60.42;100204.84;5031286;28;20684;-83
2023/12/28 03:05:31;;;;;;;3.90;1.90;;;;;;;8.59;59.79;100207.13;5030894;28;20294;-83
2023/12/28 03:07:58;;;;;;;7.10;1.63;;;;;;;8.69;59.91;100209.50;5025141;28;20184;-83
2023/12/28 03:10:25;;;;;;;5.63;1.63;;;;;;;8.73;59.48;100218.97;5033519;28;20220;-84
2023/12/28 03:12:50;;;;;;;7.07;2.20;;;;;;;8.76;59.20;100214.50;5034061;28;20184;-83
2023/12/28 03:15:15;;;;;;;5.90;1.97;;;;;;;8.83;58.77;100220.44;5032927;28;20532;-83
2023/12/28 03:17:41;;;;;;;6.03;1.93;;;;;;;8.90;58.16;100216.75;5033838;28;20193;-83
2023/12/28 03:20:09;;;;;;;7.00;2.10;;;;;;;8.74;58.60;100216.31;5033903;28;20615;-83
2023/12/28 03:22:34;;;;;;;5.83;2.43;;;;;;;8.60;58.50;100211.47;5014899;28;20224;-83
2023/12/28 03:25:02;;;;;;;5.10;2.03;;;;;;;8.59;59.16;100214.13;5034015;28;20251;-83
2023/12/28 03:27:28;;;;;;;6.87;2.83;;;;;;;8.57;59.04;100222.00;5034701;28;20170;-83
2023/12/28 03:29:55;;;;;;;7.10;2.17;;;;;;;8.53;58.61;100206.47;5016543;28;20176;-83
2023/12/28 03:32:21;;;;;;;5.27;2.43;;;;;;;8.45;58.96;100213.66;5028955;28;20323;-83
2023/12/28 03:34:48;;;;;;;6.30;1.97;;;;;;;8.39;59.02;100219.03;5025795;28;20189;-83
2023/12/28 03:37:13;;;;;;;7.80;2.40;;;;;;;8.42;59.00;100224.16;5034380;28;20178;-83
2023/12/28 03:39:40;;;;;;;4.63;2.30;;;;;;;8.47;59.02;100214.44;5033881;28;20655;-83
2023/12/28 03:42:06;;;;;;;4.83;2.53;;;;;;;8.34;58.50;100224.38;5031401;28;20183;-83
2023/12/28 03:44:32;;;;;;;3.47;2.00;;;;;;;8.26;58.81;100226.28;5013870;28;20177;-83
2023/12/28 03:47:00;;;;;;;7.63;2.83;;;;;;;8.23;58.49;100221.16;5014492;28;20215;-83
2023/12/28 03:49:25;;;;;;;8.03;2.60;;;;;;;8.18;58.52;100224.75;5018863;28;20267;-83
2023/12/28 03:51:52;;;;;;;7.70;3.47;;;;;;;8.12;58.30;100222.34;5033171;28;20250;-83
2023/12/28 03:54:19;;;;;;;13.13;3.97;;;;;;;7.99;57.70;100224.41;5028286;28;20241;-83
2023/12/28 03:56:49;;;;;;;24.33;5.00;;;;;;;7.97;58.31;100216.59;5033890;28;20195;-83
2023/12/28 03:59:16;;;;;;;8.67;3.47;;;;;;;7.91;57.81;100221.13;5033482;28;20176;-83
2023/12/28 04:01:43;;;;;;;10.20;3.67;;;;;;;7.81;57.79;100214.38;5032963;28;20194;-83
2023/12/28 04:04:08;;;;;;;8.27;3.30;;;;;;;7.75;57.95;100220.63;5024038;28;20191;-83
2023/12/28 04:06:34;;;;;;;7.80;3.63;;;;;;;7.65;57.77;100221.72;5033312;28;20211;-82
2023/12/28 04:08:59;;;;;;;8.10;3.73;;;;;;;7.62;57.82;100216.59;5015778;28;20653;-83
2023/12/28 04:11:25;;;;;;;5.40;3.17;;;;;;;7.64;58.47;100206.97;5033048;28;20831;-83
2023/12/28 04:13:51;;;;;;;8.67;4.40;;;;;;;7.53;58.08;100216.78;5021817;28;20186;-83
2023/12/28 04:16:17;;;;;;;6.53;3.30;;;;;;;7.39;58.42;100217.09;5033330;28;20273;-83
2023/12/28 04:18:43;;;;;;;12.13;3.87;;;;;;;7.20;59.74;100217.56;5031604;28;20685;-83
2023/12/28 04:21:13;;;;;;;18.37;3.53;;;;;;;7.13;60.27;100223.78;5033216;28;20217;-83
2023/12/28 04:23:41;;;;;;;14.23;4.47;;;;;;;7.11;60.57;100230.78;5019939;28;20296;-82
2023/12/28 04:26:08;;;;;;;13.17;3.83;;;;;;;7.14;61.09;100222.91;5007429;28;20202;-83
2023/12/28 04:28:35;;;;;;;9.70;3.20;;;;;;;7.19;60.59;100226.25;5030778;28;20551;-83
2023/12/28 04:31:06;;;;;;;4.70;2.53;;;;;;;7.30;60.94;100227.75;5025316;28;20189;-83
2023/12/28 04:33:31;;;;;;;7.40;3.50;;;;;;;7.30;61.52;100226.88;5032520;28;20167;-83
2023/12/28 04:36:07;;;;;;;7.03;3.00;;;;;;;7.13;61.83;100235.06;5018586;28;20183;-83
2023/12/28 04:38:34;;;;;;;8.53;3.30;;;;;;;7.10;62.65;100226.47;5022690;28;20189;-83
2023/12/28 04:41:01;;;;;;;7.47;3.37;;;;;;;7.10;62.46;100224.69;5032563;28;20231;-83
2023/12/28 04:43:27;;;;;;;9.53;4.00;;;;;;;7.23;62.10;100225.31;5027844;28;20182;-83
2023/12/28 04:45:53;;;;;;;8.53;5.40;;;;;;;7.28;62.28;100233.91;5008919;28;20212;-83
2023/12/28 04:48:20;;;;;;;14.67;7.40;;;;;;;7.04;63.36;100229.19;5022114;28;20183;-83
2023/12/28 04:50:48;;;;;;;14.17;6.40;;;;;;;7.04;63.66;100231.81;5013143;28;20263;-83
2023/12/28 04:53:15;;;;;;;18.67;6.47;;;;;;;6.96;63.94;100231.09;5008451;28;20201;-83
2023/12/28 04:55:41;;;;;;;13.63;5.73;;;;;;;6.96;64.64;100231.97;5031565;28;20190;-83
2023/12/28 04:58:07;;;;;;;10.27;4.70;;;;;;;6.90;65.25;100231.22;5032170;28;20174;-83
2023/12/28 05:00:33;;;;;;;11.30;5.73;;;;;;;7.06;65.04;100227.41;5032427;28;20260;-82
2023/12/28 05:03:00;;;;;;;16.40;5.53;;;;;;;7.27;64.64;100226.97;5032843;28;20210;-82
2023/12/28 05:05:26;;;;;;;13.00;5.07;;;;;;;7.32;64.04;100231.19;5032408;28;20212;-83
2023/12/28 05:07:53;;;;;;;10.53;4.97;;;;;;;7.46;64.37;100233.50;5032628;28;20174;-83
2023/12/28 05:10:18;;;;;;;9.50;4.47;;;;;;;7.46;63.37;100243.06;5032334;28;20175;-83
2023/12/28 05:12:45;;;;;;;10.73;5.50;;;;;;;7.58;63.21;100241.03;5032296;28;20630;-83
2023/12/28 05:15:12;;;;;;;11.63;5.13;;;;;;;7.52;62.95;100248.16;5032194;28;20178;-83
2023/12/28 05:17:38;;;;;;;15.43;6.50;;;;;;;7.39;63.36;100239.72;5031215;28;20178;-83
2023/12/28 05:20:06;;;;;;;15.27;6.53;;;;;;;7.44;63.22;100236.13;5032941;28;20170;-83
2023/12/28 05:22:32;;;;;;;14.10;6.20;;;;;;;7.45;62.90;100242.19;5014125;28;20198;-83
2023/12/28 05:24:58;;;;;;;24.23;8.43;;;;;;;7.39;62.92;100240.56;5032139;28;20711;-83
2023/12/28 05:27:24;;;;;;;35.93;13.17;;;;;;;7.36;62.88;100239.81;5013311;28;20287;-83
2023/12/28 05:29:51;;;;;;;23.53;9.57;;;;;;;7.22;62.62;100240.09;5025327;28;20179;-83
2023/12/28 05:32:18;;;;;;;20.80;7.93;;;;;;;7.17;62.71;100241.09;5032589;28;20178;-83
2023/12/28 05:34:43;;;;;;;12.97;7.13;;;;;;;7.19;62.93;100244.50;5014923;28;20190;-83
2023/12/28 05:37:08;;;;;;;12.37;5.33;;;;;;;7.20;61.67;100244.50;5026371;28;20178;-83
2023/12/28 05:39:35;;;;;;;12.43;6.83;;;;;;;7.23;61.51;100246.19;5034356;28;20246;-83
2023/12/28 05:42:02;;;;;;;10.77;5.63;;;;;;;7.26;61.40;100239.13;5036224;28;20650;-83
2023/12/28 05:44:29;;;;;;;14.03;6.90;;;;;;;7.30;60.45;100243.41;5036120;28;20194;-83
2023/12/28 05:46:57;;;;;;;10.27;4.37;;;;;;;7.17;60.40;100235.88;5034062;28;20284;-83
2023/12/28 05:49:25;;;;;;;11.83;4.73;;;;;;;7.06;60.27;100237.84;5035790;28;20178;-83
2023/12/28 05:51:50;;;;;;;11.10;5.00;;;;;;;7.13;61.29;100242.88;5018224;28;20182;-83
2023/12/28 05:54:17;;;;;;;13.13;4.33;;;;;;;7.29;60.27;100238.19;5035570;28;20236;-83
2023/12/28 05:56:42;;;;;;;8.97;3.97;;;;;;;7.29;60.29;100240.81;5009766;28;20171;-83
2023/12/28 05:59:09;;;;;;;6.53;3.33;;;;;;;7.16;60.53;100247.19;5036109;28;20181;-83
2023/12/28 06:01:42;;;;;;;4.50;2.47;;;;;;;7.11;61.12;100244.69;5035406;28;20225;-83
2023/12/28 06:04:08;;;;;;;5.83;2.63;;;;;;;7.27;60.64;100253.03;5035788;28;20190;-83
2023/12/28 06:06:36;;;;;;;8.30;3.50;;;;;;;7.17;61.99;100256.72;5025433;28;20242;-83
2023/12/28 06:09:03;;;;;;;9.73;2.70;;;;;;;7.14;61.33;100267.22;5018362;28;20182;-83
2023/12/28 06:11:30;;;;;;;8.00;3.13;;;;;;;7.10;62.43;100253.38;5035607;28;20178;-83
2023/12/28 06:13:57;;;;;;;5.97;2.50;;;;;;;7.16;62.43;100252.41;5018140;28;20543;-83
2023/12/28 06:16:22;;;;;;;6.20;2.90;;;;;;;7.18;62.63;100246.25;5032082;28;20246;-83
2023/12/28 06:18:48;;;;;;;10.87;2.80;;;;;;;7.17;62.75;100254.13;5032808;28;20521;-83
2023/12/28 06:21:13;;;;;;;6.80;2.63;;;;;;;7.18;62.97;100255.84;5026337;28;20243;-83
2023/12/28 06:23:39;;;;;;;5.37;2.53;;;;;;;7.24;62.80;100258.31;5018582;28;20206;-84
2023/12/28 06:26:08;;;;;;;5.60;3.17;;;;;;;7.22;63.87;100260.09;5020839;28;20264;-84
2023/12/28 06:28:33;;;;;;;6.37;3.50;;;;;;;7.34;63.53;100263.28;5021228;28;20178;-84
2023/12/28 06:31:03;;;;;;;9.63;3.77;;;;;;;7.49;63.28;100259.50;5000005;28;20202;-84
2023/12/28 06:33:28;;;;;;;6.17;3.30;;;;;;;7.62;63.39;100260.94;4999024;28;20178;-83
2023/12/28 06:35:54;;;;;;;8.33;3.57;;;;;;;7.93;63.65;100254.13;4991682;28;20595;-83
2023/12/28 06:38:20;;;;;;;9.67;3.70;;;;;;;9.08;64.16;100252.81;5023180;28;20203;-83
2023/12/28 06:40:45;;;;;;;10.80;4.10;;;;;;;10.74;58.41;100242.22;5020401;28;20192;-83
2023/12/28 06:43:11;;;;;;;6.87;3.63;;;;;;;12.26;52.67;100234.53;5024014;28;20198;-84
2023/12/28 06:45:36;;;;;;;6.80;3.40;;;;;;;13.48;48.08;100229.03;5014116;28;20214;-84
2023/12/28 06:48:01;;;;;;;7.97;3.73;;;;;;;14.72;43.98;100222.00;5014494;28;20214;-84
2023/12/28 06:50:27;;;;;;;10.10;5.33;;;;;;;15.42;42.03;100223.47;4999066;28;20186;-84
2023/12/28 06:52:52;;;;;;;20.57;9.30;;;;;;;15.37;40.73;100231.66;5018335;28;20190;-84
2023/12/28 06:55:18;;;;;;;22.13;9.77;;;;;;;15.29;40.47;100236.53;5018300;28;20205;-84
2023/12/28 06:57:43;;;;;;;20.33;10.53;;;;;;;15.22;39.91;100233.38;5014256;28;20174;-84
2023/12/28 07:00:09;;;;;;;21.20;10.40;;;;;;;14.85;40.42;100238.03;4998868;28;20190;-84
2023/12/28 07:02:35;;;;;;;21.97;11.00;;;;;;;14.46;41.21;100241.81;5019988;28;20190;-84
2023/12/28 07:05:00;;;;;;;24.53;10.90;;;;;;;14.10;42.59;100247.09;5016238;28;20182;-84
2023/12/28 07:07:26;;;;;;;20.13;9.73;;;;;;;13.83;43.80;100245.81;5017057;28;20209;-84
2023/12/28 07:09:51;;;;;;;34.97;13.23;;;;;;;13.81;44.35;100242.38;5019939;28;20667;-84
2023/12/28 07:12:16;;;;;;;43.23;18.33;;;;;;;13.86;44.33;100244.81;5015488;28;20190;-84
2023/12/28 07:14:42;;;;;;;54.37;21.93;;;;;;;14.06;43.12;100237.66;5017298;28;20184;-84
2023/12/28 07:17:07;;;;;;;48.83;22.50;;;;;;;14.14;42.65;100240.75;4997105;28;20177;-84
2023/12/28 07:19:34;;;;;;;54.40;21.87;;;;;;;13.88;42.56;100241.19;5020114;28;20630;-84
2023/12/28 07:21:59;;;;;;;44.23;17.83;;;;;;;13.55;43.09;100250.66;5022803;28;20204;-84
2023/12/28 07:24:25;;;;;;;33.07;14.47;;;;;;;13.12;44.23;100253.59;5033509;28;20198;-84
2023/12/28 07:26:50;;;;;;;30.00;11.47;;;;;;;12.65;45.68;100260.91;5033216;28;20192;-83
2023/12/28 07:29:15;;;;;;;27.33;12.10;;;;;;;12.33;47.14;100270.16;5032755;28;20204;-83
2023/12/28 07:31:41;;;;;;;26.77;10.47;;;;;;;12.14;47.84;100275.31;5032658;28;20196;-83
2023/12/28 07:34:07;;;;;;;22.73;10.10;;;;;;;12.06;48.24;100280.03;5015166;28;20188;-83
2023/12/28 07:36:32;;;;;;;15.03;8.27;;;;;;;11.94;48.84;100279.66;5027257;28;20181;-82
2023/12/28 07:38:57;;;;;;;14.97;7.23;;;;;;;11.74;50.27;100282.25;5029749;28;20573;-83
2023/12/28 07:41:29;;;;;;;23.07;10.37;;;;;;;11.58;51.07;100280.16;5015315;28;20184;-83
2023/12/28 07:43:54;;;;;;;13.90;6.70;;;;;;;11.44;52.35;100284.22;5040475;28;20194;-83
2023/12/28 07:46:20;;;;;;;17.03;7.60;;;;;;;11.44;53.18;100287.72;5029725;28;20281;-82
2023/12/28 07:48:49;;;;;;;14.73;7.00;;;;;;;11.53;54.12;100283.88;5027374;28;20186;-82
2023/12/28 07:51:17;;;;;;;27.67;10.73;;;;;;;11.56;54.66;100279.34;5030270;28;20219;-81
2023/12/28 07:53:42;;;;;;;23.83;10.23;;;;;;;11.71;55.17;100285.84;5031184;28;20309;-81
2023/12/28 07:56:08;;;;;;;19.60;8.30;;;;;;;11.92;55.59;100286.75;5026787;28;20198;-81
2023/12/28 07:58:33;;;;;;;15.27;7.30;;;;;;;12.09;54.82;100276.41;5025321;28;20670;-84
2023/12/28 08:00:58;;;;;;;14.60;7.67;;;;;;;12.23;55.10;100279.34;5009178;28;20672;-83
2023/12/28 08:03:24;;;;;;;18.07;9.10;;;;;;;12.34;54.59;100285.03;5028673;28;20194;-84
2023/12/28 08:05:58;;;;;;;19.00;8.33;;;;;;;12.51;54.63;100274.66;5027227;28;20227;-83
2023/12/28 08:08:24;;;;;;;20.67;9.80;;;;;;;12.69;53.76;100273.84;5025164;28;20274;-83
2023/12/28 08:10:49;;;;;;;14.77;7.40;;;;;;;12.66;52.55;100275.75;5029129;28;20264;-83
2023/12/28 08:13:19;;;;;;;20.63;6.60;;;;;;;12.61;52.46;100275.97;5029689;28;20532;-84
2023/12/28 08:15:46;;;;;;;14.87;6.60;;;;;;;12.75;52.86;100270.97;5009380;28;20187;-83
2023/12/28 08:18:12;;;;;;;16.20;7.13;;;;;;;12.90;52.94;100266.81;5019858;28;20246;-83
2023/12/28 08:20:39;;;;;;;18.20;8.60;;;;;;;13.06;52.78;100270.47;5032748;28;20244;-83
2023/12/28 08:23:04;;;;;;;20.03;8.70;;;;;;;13.27;52.10;100272.16;5015730;28;20237;-84
2023/12/28 08:25:29;;;;;;;15.10;6.90;;;;;;;13.48;51.81;100275.59;5032958;28;20723;-83
2023/12/28 08:27:55;;;;;;;14.60;6.40;;;;;;;13.61;51.50;100265.34;5026595;28;20220;-84
2023/12/28 08:30:21;;;;;;;13.93;6.30;;;;;;;13.74;51.10;100272.59;5011083;28;20185;-84
2023/12/28 08:32:48;;;;;;;15.33;6.73;;;;;;;13.89;50.03;100263.94;5014926;28;20633;-84
2023/12/28 08:35:13;;;;;;;13.57;6.00;;;;;;;14.03;49.37;100258.03;5014239;28;20190;-84
2023/12/28 08:37:39;;;;;;;11.40;6.40;;;;;;;14.03;48.79;100253.59;5013861;28;20209;-84
2023/12/28 08:40:05;;;;;;;13.67;5.73;;;;;;;14.18;48.77;100251.16;5027973;28;20186;-84
2023/12/28 08:42:36;;;;;;;12.57;5.20;;;;;;;14.36;48.10;100250.28;5030834;28;20186;-84
2023/12/28 08:45:01;;;;;;;11.40;5.37;;;;;;;14.44;47.47;100253.38;5030154;28;20182;-84
2023/12/28 08:47:30;;;;;;;12.70;5.03;;;;;;;14.60;47.46;100244.59;5031959;28;20586;-84
2023/12/28 08:49:56;;;;;;;9.47;4.90;;;;;;;14.62;45.70;100241.88;5014304;28;20183;-85
2023/12/28 08:52:22;;;;;;;8.73;3.97;;;;;;;14.69;46.56;100243.25;5031417;28;20185;-84
2023/12/28 08:54:55;;;;;;;13.30;5.77;;;;;;;14.80;45.84;100235.66;5037636;28;20193;-85
2023/12/28 08:57:21;;;;;;;10.47;6.03;;;;;;;14.79;45.17;100233.94;5031921;28;20192;-85
2023/12/28 08:59:54;;;;;;;13.00;6.20;;;;;;;14.89;45.90;100229.00;5031333;28;20187;-85
2023/12/28 09:02:30;;;;;;;11.50;5.77;;;;;;;15.10;45.88;100230.50;5030532;28;20188;-85
2023/12/28 09:04:58;;;;;;;11.33;6.50;;;;;;;15.17;45.19;100224.00;5032910;28;20184;-85
2023/12/28 09:07:23;;;;;;;14.87;6.13;;;;;;;15.23;44.86;100221.00;5027353;28;20200;-85
2023/12/28 09:09:50;;;;;;;14.23;6.83;;;;;;;15.33;44.71;100220.41;5027457;28;20180;-85
2023/12/28 09:12:18;;;;;;;15.37;6.33;;;;;;;15.48;44.44;100217.91;5031599;28;20319;-85
2023/12/28 09:14:44;;;;;;;13.50;7.77;;;;;;;15.65;44.59;100202.81;5031660;28;20280;-85
2023/12/28 09:17:24;;;;;;;13.23;7.17;;;;;;;15.58;43.86;100205.88;5032102;28;20182;-85
2023/12/28 09:19:50;;;;;;;14.17;7.37;;;;;;;15.69;43.70;100203.50;5026749;28;20182;-86
2023/12/28 09:22:16;;;;;;;14.20;7.00;;;;;;;15.78;43.71;100195.03;5035248;28;20221;-86
2023/12/28 09:25:01;;;;;;;14.13;7.90;;;;;;;15.98;43.99;100185.00;5046929;28;20188;-85
2023/12/28 09:27:28;;;;;;;13.57;6.53;;;;;;;16.26;43.68;100176.31;4950229;28;20226;-85
2023/12/28 09:29:54;;;;;;;13.50;5.40;;;;;;;16.10;41.90;100174.66;5034793;28;20182;-85
2023/12/28 09:32:22;;;;;;;11.43;3.77;;;;;;;16.28;41.27;100173.56;5033431;28;20197;-85
2023/12/28 09:35:01;;;;;;;7.50;2.90;;;;;;;16.45;40.31;100165.50;5027231;28;20219;-85
2023/12/28 09:37:26;;;;;;;6.73;3.20;;;;;;;16.58;41.30;100167.34;5017015;28;20226;-85
2023/12/28 09:39:53;;;;;;;7.90;2.97;;;;;;;16.78;40.78;100166.09;5034773;28;20183;-84
2023/12/28 09:42:44;;;;;;;5.53;3.13;;;;;;;16.93;40.05;100151.91;5033602;28;20190;-85
2023/12/28 09:45:10;;;;;;;5.83;3.33;;;;;;;16.99;40.17;100150.69;5034727;28;20240;-85
2023/12/28 09:47:37;;;;;;;9.53;3.27;;;;;;;17.10;39.95;100138.47;5017828;28;20228;-85
2023/12/28 09:50:02;;;;;;;7.23;3.07;;;;;;;17.00;39.06;100142.66;5034873;28;20182;-85
2023/12/28 09:52:30;;;;;;;6.63;3.20;;;;;;;16.92;38.48;100144.06;5033477;28;20186;-85
2023/12/28 09:54:55;;;;;;;4.93;2.80;;;;;;;17.00;39.15;100133.84;5035247;28;20214;-85
2023/12/28 09:57:21;;;;;;;5.07;2.73;;;;;;;17.22;38.98;100131.53;5033333;28;20179;-85
2023/12/28 09:59:48;;;;;;;8.53;3.27;;;;;;;17.13;37.90;100127.69;5034721;28;20709;-85
2023/12/28 10:02:16;;;;;;;8.10;3.30;;;;;;;17.12;38.43;100125.13;5017834;28;20190;-85
2023/12/28 10:04:43;;;;;;;7.37;3.63;;;;;;;17.25;38.53;100127.81;5035039;28;20189;-85
2023/12/28 10:07:09;;;;;;;14.30;3.17;;;;;;;17.31;38.44;100125.66;5016931;28;20217;-85
2023/12/28 10:09:36;;;;;;;8.97;3.23;;;;;;;17.36;38.04;100128.84;5032744;28;20214;-85
2023/12/28 10:12:03;;;;;;;4.80;2.53;;;;;;;17.44;37.08;100126.56;5004683;28;20200;-85
2023/12/28 10:14:40;;;;;;;6.40;3.63;;;;;;;17.52;36.82;100118.97;5035035;28;20217;-85
2023/12/28 10:17:06;;;;;;;5.43;2.83;;;;;;;17.53;37.57;100109.25;5017367;28;20189;-85
2023/12/28 10:19:31;;;;;;;7.77;3.47;;;;;;;17.35;37.78;100111.22;5017672;28;20174;-85
2023/12/28 10:22:00;;;;;;;4.93;2.20;;;;;;;17.23;36.80;100101.44;5031273;28;20264;-85
2023/12/28 10:24:25;;;;;;;6.60;2.73;;;;;;;17.30;36.68;100096.56;4998526;28;20290;-85
2023/12/28 10:26:52;;;;;;;5.67;2.90;;;;;;;17.33;36.72;100099.88;5034107;28;20206;-84
2023/12/28 10:29:19;;;;;;;5.80;2.37;;;;;;;17.36;36.88;100094.41;5017870;28;20517;-84
2023/12/28 10:31:50;;;;;;;6.23;3.07;;;;;;;17.24;36.57;100084.59;5017663;28;20193;-85
2023/12/28 10:34:18;;;;;;;5.30;2.53;;;;;;;17.43;36.31;100076.28;5024597;28;20237;-85
2023/12/28 10:36:47;;;;;;;7.67;3.63;;;;;;;17.34;36.55;100076.91;5009301;28;20601;-86
2023/12/28 10:39:19;;;;;;;7.87;3.33;;;;;;;17.57;37.15;100074.47;5024430;28;20193;-85
2023/12/28 10:41:49;;;;;;;6.97;2.90;;;;;;;17.76;36.65;100072.28;5026256;28;20256;-86
2023/12/28 10:44:22;;;;;;;7.43;3.40;;;;;;;17.95;36.42;100068.41;5016900;28;20660;-85
2023/12/28 10:46:57;;;;;;;7.13;2.73;;;;;;;18.21;35.76;100064.81;5034116;28;20234;-86
2023/12/28 10:49:25;;;;;;;8.17;3.30;;;;;;;18.22;36.02;100051.41;5034153;28;20187;-85
2023/12/28 10:51:52;;;;;;;9.73;3.07;;;;;;;18.15;36.11;100049.28;5034551;28;20182;-85
2023/12/28 10:54:54;;;;;;;5.83;2.90;;;;;;;18.30;35.50;100048.22;5034332;28;20187;-86
2023/12/28 10:57:29;;;;;;;10.40;3.17;;;;;;;18.41;35.92;100051.00;5017366;28;20170;-87
2023/12/28 11:00:14;;;;;;;10.40;2.90;;;;;;;18.59;35.37;100028.47;4995919;28;20269;-86
2023/12/28 11:02:45;;;;;;;7.53;3.00;;;;;;;18.45;36.13;100031.22;5016815;28;20619;-86
2023/12/28 11:05:12;;;;;;;6.10;2.90;;;;;;;18.65;35.32;100020.09;5016940;28;20528;-86
2023/12/28 11:07:41;;;;;;;7.10;3.40;;;;;;;18.62;35.46;100022.94;5022428;28;20358;-86
2023/12/28 11:10:10;;;;;;;8.27;4.50;;;;;;;18.22;36.21;100018.72;5019146;28;20536;-86
2023/12/28 11:12:41;;;;;;;8.40;3.80;;;;;;;18.08;36.97;100021.50;5017661;28;20589;-86
2023/12/28 11:15:11;;;;;;;15.17;5.17;;;;;;;18.04;37.26;100012.03;5016948;28;20240;-87
2023/12/28 11:17:41;;;;;;;8.63;3.33;;;;;;;18.20;37.15;100004.72;5017867;28;20178;-86
2023/12/28 11:20:09;;;;;;;13.03;3.30;;;;;;;18.22;36.78;100002.78;5035022;28;20185;-87
2023/12/28 11:22:40;;;;;;;8.93;3.60;;;;;;;18.40;37.13;99998.84;5030207;28;20303;-86
2023/12/28 11:25:50;;;;;;;;;;;;;;;;;;;;;
2023/12/28 11:28:17;;;;;;;14.43;4.77;;;;;;;18.79;36.97;99981.88;4999434;28;20213;-86